To NAV CANADA Home Page Login to a new session Search on AWWS site Feedback and Comments Disclaimer Vers la page française équivalente Tips FAQ What's new on the site To the Forecasts and Observations / NOTAM section To "File a Flight Plan" website Publications and other links Update of the User's profile FIC Telephone Numbers My Weather Data Folder Route Weather Data Regional Weather Data Local Weather Data To the Forecasts and Observations / NOTAM section
Request Generated 09/26/2017 at 05:37:12 UTC . Weather information available at that time is displayed.

METAR/TAF

CALGARY INTL/AB    

METAR CYYC 260500Z 29003KT 10SM BKN077 BKN120 14/04 A2998 RMK AC6AC1
VIRGA SLP158 DENSITY ALT 4300FT=
METAR CYYC 260400Z 14002KT 10SM BKN076 BKN120 15/04 A2997 RMK AC5AC2
VIRGA OVRHD SLP157 DENSITY ALT 4400FT=
METAR CYYC 260300Z 10006KT 10SM BKN087 BKN120 14/05 A2996 RMK AC6AC1
VIRGA ALQDS SLP161 DENSITY ALT 4400FT=

TAF CYYC 260238Z 2603/2624 VRB03KT P6SM SCT070 BKN120 TEMPO 2603/2611
P6SM VCSH BKN070 BKN120
FM261100 31008KT P6SM FEW050 BKN100
FM262000 13008KT P6SM FEW060 SCT120
RMK NXT FCST BY 260600Z=
Your time UTC time
Weather data provided by Environment Canada and NAV CANADA